createdAt,value
2018-07-08T00:00:57.815Z,102528.05
2018-07-08T00:03:29.615Z,102526.39
2018-07-08T00:06:02.557Z,102524.59
2018-07-08T00:08:36.047Z,102533.05
2018-07-08T00:11:09.233Z,102533.73
2018-07-08T00:13:40.677Z,102529.83
2018-07-08T00:16:14.122Z,102536.78
2018-07-08T00:18:48.857Z,102537.05
2018-07-08T00:21:20.623Z,102536.67
2018-07-08T00:23:52.083Z,102535.95
2018-07-08T00:26:25.234Z,102531.00
2018-07-08T00:28:57.384Z,102531.86
2018-07-08T00:31:27.593Z,102525.55
2018-07-08T00:34:00.757Z,102528.27
2018-07-08T00:36:32.399Z,102523.09
2018-07-08T00:39:04.470Z,102527.84
2018-07-08T00:41:34.420Z,102522.97
2018-07-08T00:44:08.219Z,102523.03
2018-07-08T00:46:41.252Z,102524.42
2018-07-08T00:49:13.407Z,102530.06
2018-07-08T00:51:43.536Z,102531.55
2018-07-08T00:54:15.149Z,102528.63
2018-07-08T00:56:48.787Z,102533.44
2018-07-08T00:59:20.714Z,102538.11
2018-07-08T01:01:53.124Z,102537.28
2018-07-08T01:04:23.829Z,102538.23
2018-07-08T01:06:58.819Z,102546.61
2018-07-08T01:09:33.754Z,102546.61
2018-07-08T01:12:03.746Z,102551.38
2018-07-08T01:14:37.998Z,102546.29
2018-07-08T01:17:10.037Z,102551.37
2018-07-08T01:19:43.143Z,102547.77
2018-07-08T01:22:13.218Z,102547.09
2018-07-08T01:24:46.597Z,102548.85
2018-07-08T01:27:18.336Z,102543.34
2018-07-08T01:29:49.921Z,102550.90
2018-07-08T01:32:23.102Z,102549.99
2018-07-08T01:34:53.227Z,102544.43
2018-07-08T01:37:25.318Z,102536.78
2018-07-08T01:39:58.522Z,102537.25
2018-07-08T01:42:33.930Z,102541.20
2018-07-08T01:45:05.598Z,102539.88
2018-07-08T01:47:38.572Z,102541.52
2018-07-08T01:50:10.715Z,102547.07
2018-07-08T01:52:43.672Z,102543.86
2018-07-08T01:55:15.408Z,102549.26
2018-07-08T01:57:50.394Z,102546.27
2018-07-08T02:00:21.879Z,102546.80
2018-07-08T02:02:56.524Z,102554.54
2018-07-08T02:05:29.853Z,102556.67
2018-07-08T02:08:03.243Z,102558.48
2018-07-08T02:10:36.206Z,102553.30
2018-07-08T02:13:07.812Z,102563.23
2018-07-08T02:15:42.603Z,102558.57
2018-07-08T02:18:15.747Z,102565.41
2018-07-08T02:20:47.535Z,102570.26
2018-07-08T02:23:20.919Z,102565.02
2018-07-08T02:25:52.526Z,102563.23
2018-07-08T02:28:22.449Z,102571.11
2018-07-08T02:30:54.487Z,102566.22
2018-07-08T02:33:24.181Z,102575.53
2018-07-08T02:35:54.234Z,102573.87
2018-07-08T02:38:27.462Z,102569.45
2018-07-08T02:40:58.998Z,102574.12
2018-07-08T02:43:30.614Z,102570.31
2018-07-08T02:46:02.327Z,102579.67
2018-07-08T02:48:35.533Z,102572.77
2018-07-08T02:51:07.136Z,102573.33
2018-07-08T02:53:40.984Z,102568.70
2018-07-08T02:56:12.926Z,102572.95
2018-07-08T02:58:46.219Z,102564.54
2018-07-08T03:01:17.905Z,102563.98
2018-07-08T03:03:47.992Z,102567.48
2018-07-08T03:06:21.363Z,102571.53
2018-07-08T03:08:51.873Z,102565.36
2018-07-08T03:11:22.354Z,102565.27
2018-07-08T03:13:55.195Z,102571.91
2018-07-08T03:16:28.798Z,102568.16
2018-07-08T03:19:00.318Z,102567.81
2018-07-08T03:21:33.056Z,102574.38
2018-07-08T03:24:05.783Z,102572.34
2018-07-08T03:26:37.741Z,102576.77
2018-07-08T03:29:10.974Z,102579.73
2018-07-08T03:31:43.533Z,102582.41
2018-07-08T03:34:15.547Z,102581.21
2018-07-08T03:36:46.050Z,102585.97
2018-07-08T03:39:17.577Z,102584.28
2018-07-08T03:41:48.260Z,102588.67
2018-07-08T03:44:21.852Z,102578.47
2018-07-08T03:46:53.383Z,102587.73
2018-07-08T03:49:24.925Z,102586.97
2018-07-08T03:51:58.047Z,102592.16
2018-07-08T03:54:32.047Z,102598.72
2018-07-08T03:57:02.566Z,102593.20
2018-07-08T03:59:37.346Z,102592.00
2018-07-08T04:02:10.648Z,102596.45
2018-07-08T04:04:42.077Z,102590.25
2018-07-08T04:07:15.295Z,102592.97
2018-07-08T04:09:46.898Z,102594.66
2018-07-08T04:12:18.573Z,102590.51
2018-07-08T04:14:50.200Z,102594.22
2018-07-08T04:17:20.379Z,102595.41
2018-07-08T04:19:51.998Z,102591.90
2018-07-08T04:22:25.010Z,102600.93
2018-07-08T04:24:58.001Z,102600.88
2018-07-08T04:27:32.151Z,102598.86
2018-07-08T04:30:05.046Z,102606.92
2018-07-08T04:32:38.324Z,102600.14
2018-07-08T04:35:08.752Z,102599.98
2018-07-08T04:37:40.191Z,102606.85
2018-07-08T04:40:10.326Z,102606.67
2018-07-08T04:42:41.998Z,102610.24
2018-07-08T04:45:13.419Z,102611.45
2018-07-08T04:47:46.377Z,102610.80
2018-07-08T04:50:19.482Z,102612.65
2018-07-08T04:52:54.210Z,102616.14
2018-07-08T04:55:24.181Z,102613.77
2018-07-08T04:57:57.185Z,102613.88
2018-07-08T05:00:30.037Z,102618.59
2018-07-08T05:03:03.796Z,102617.88
2018-07-08T05:05:35.803Z,102615.95
2018-07-08T05:08:07.243Z,102617.48
2018-07-08T05:10:38.935Z,102615.38
2018-07-08T05:13:12.285Z,102620.27
2018-07-08T05:15:45.751Z,102631.13
2018-07-08T05:18:17.286Z,102634.39
2018-07-08T05:20:48.777Z,102631.85
2018-07-08T05:23:19.081Z,102627.44
2018-07-08T05:25:52.194Z,102626.73
2018-07-08T05:28:21.400Z,102628.10
2018-07-08T05:30:54.729Z,102628.47
2018-07-08T05:33:24.844Z,102633.41
2018-07-08T05:35:59.763Z,102628.33
2018-07-08T05:38:31.204Z,102634.84
2018-07-08T05:41:02.712Z,102640.32
2018-07-08T05:43:32.692Z,102636.95
2018-07-08T05:46:04.075Z,102635.59
2018-07-08T05:48:36.974Z,102635.75
2018-07-08T05:51:08.570Z,102636.91
2018-07-08T05:53:42.260Z,102631.63
2018-07-08T05:56:14.346Z,102629.80
2018-07-08T05:58:46.025Z,102629.73
2018-07-08T06:01:18.783Z,102626.58
2018-07-08T06:03:51.785Z,102619.98
2018-07-08T06:06:24.753Z,102621.20
2018-07-08T06:08:56.215Z,102610.08
2018-07-08T06:11:29.759Z,102613.06
2018-07-08T06:14:02.829Z,102616.30
2018-07-08T06:16:36.254Z,102617.94
2018-07-08T06:19:09.238Z,102606.64
2018-07-08T06:21:43.619Z,102619.18
2018-07-08T06:24:13.724Z,102618.05
2018-07-08T06:26:43.826Z,102622.68
2018-07-08T06:29:14.763Z,102622.08
2018-07-08T06:31:46.821Z,102622.37
2018-07-08T06:34:19.685Z,102630.47
2018-07-08T06:36:51.127Z,102622.75
2018-07-08T06:39:24.008Z,102621.23
2018-07-08T06:41:58.396Z,102624.43
2018-07-08T06:44:29.843Z,102615.63
2018-07-08T06:47:03.312Z,102617.55
2018-07-08T06:49:36.231Z,102616.35
2018-07-08T06:52:09.275Z,102615.22
2018-07-08T06:54:40.600Z,102620.64
2018-07-08T06:57:12.017Z,102620.05
2018-07-08T06:59:46.875Z,102620.71
2018-07-08T07:02:19.746Z,102618.20
2018-07-08T07:04:51.137Z,102628.03
2018-07-08T07:07:24.131Z,102625.03
2018-07-08T07:09:56.966Z,102626.98
2018-07-08T07:12:29.776Z,102620.61
2018-07-08T07:15:04.225Z,102626.05
2018-07-08T07:17:33.519Z,102625.33
2018-07-08T07:20:03.429Z,102620.71
2018-07-08T07:22:37.647Z,102627.75
2018-07-08T07:25:12.390Z,102619.55
2018-07-08T07:27:45.288Z,102619.05
2018-07-08T07:30:18.190Z,102625.00
2018-07-08T07:32:51.185Z,102621.54
2018-07-08T07:35:24.086Z,102620.27
2018-07-08T07:37:58.521Z,102620.81
2018-07-08T07:40:31.446Z,102626.05
2018-07-08T07:43:02.023Z,102625.16
2018-07-08T07:45:36.280Z,102619.45
2018-07-08T07:48:09.861Z,102621.47
2018-07-08T07:50:42.728Z,102621.65
2018-07-08T07:53:12.387Z,102630.08
2018-07-08T07:55:43.903Z,102630.12
2018-07-08T07:58:15.281Z,102630.72
2018-07-08T08:00:46.636Z,102630.63
2018-07-08T08:03:18.023Z,102623.14
2018-07-08T08:05:52.515Z,102620.70
2018-07-08T08:08:24.042Z,102623.15
2018-07-08T08:10:58.378Z,102621.23
2018-07-08T08:13:31.248Z,102634.74
2018-07-08T08:16:04.085Z,102635.36
2018-07-08T08:18:37.276Z,102632.35
2018-07-08T08:21:10.976Z,102642.37
2018-07-08T08:23:43.848Z,102635.68
2018-07-08T08:26:15.820Z,102636.84
2018-07-08T08:28:48.726Z,102628.87
2018-07-08T08:31:23.458Z,102633.84
2018-07-08T08:34:42.089Z,102634.59
2018-07-08T08:37:15.031Z,102648.70
2018-07-08T08:39:48.039Z,102640.63
2018-07-08T08:42:19.619Z,102647.62
2018-07-08T08:44:55.135Z,102636.97
2018-07-08T08:47:28.348Z,102630.61
2018-07-08T08:50:01.276Z,102635.48
2018-07-08T08:52:31.875Z,102640.03
2018-07-08T08:55:04.593Z,102631.58
2018-07-08T08:57:38.978Z,102634.57
2018-07-08T09:00:21.838Z,102631.30
2018-07-08T09:02:53.841Z,102627.22
2018-07-08T09:05:27.015Z,102627.64
2018-07-08T09:07:59.488Z,102636.27
2018-07-08T09:10:32.420Z,102639.95
2018-07-08T09:13:05.280Z,102640.61
2018-07-08T09:15:38.559Z,102633.08
2018-07-08T09:18:12.995Z,102630.09
2018-07-08T09:20:44.607Z,102637.12
2018-07-08T09:23:18.908Z,102625.67
2018-07-08T09:25:50.290Z,102625.23
2018-07-08T09:28:21.716Z,102624.25
2018-07-08T09:30:53.242Z,102623.02
2018-07-08T09:33:27.942Z,102622.44
2018-07-08T09:36:00.929Z,102616.33
2018-07-08T09:38:32.511Z,102620.02
2018-07-08T09:41:03.880Z,102620.20
2018-07-08T09:43:35.294Z,102620.55
2018-07-08T09:46:06.786Z,102620.77
2018-07-08T09:48:38.226Z,102607.85
2018-07-08T09:51:09.623Z,102613.77
2018-07-08T09:53:40.120Z,102608.01
2018-07-08T09:56:13.358Z,102607.56
2018-07-08T09:58:44.773Z,102610.80
2018-07-08T10:01:19.431Z,102609.55
2018-07-08T10:03:52.549Z,102604.64
2018-07-08T10:06:25.569Z,102606.80
2018-07-08T10:08:58.130Z,102609.64
2018-07-08T10:11:32.320Z,102610.62
2018-07-08T10:14:05.277Z,102614.08
2018-07-08T10:16:36.573Z,102615.19
2018-07-08T10:19:08.072Z,102854.06
2018-07-08T10:21:40.419Z,102611.83
2018-07-08T10:24:14.833Z,102612.70
2018-07-08T10:26:47.296Z,102610.81
2018-07-08T10:29:21.819Z,102611.14
2018-07-08T10:31:55.723Z,102606.58
2018-07-08T10:34:27.267Z,102602.06
2018-07-08T10:36:58.701Z,102601.34
2018-07-08T10:39:31.811Z,102604.22
2018-07-08T10:42:05.080Z,102612.83
2018-07-08T10:44:36.369Z,102604.73
2018-07-08T10:47:08.844Z,102595.20
2018-07-08T10:49:43.167Z,102592.39
2018-07-08T10:52:16.199Z,102593.59
2018-07-08T10:54:49.168Z,102587.64
2018-07-08T10:57:22.467Z,102587.42
2018-07-08T10:59:55.503Z,102581.03
2018-07-08T11:02:28.915Z,102588.87
2018-07-08T11:05:00.441Z,102587.92
2018-07-08T11:07:33.705Z,102582.34
2018-07-08T11:10:03.078Z,102588.94
2018-07-08T11:12:36.190Z,102580.35
2018-07-08T11:15:09.451Z,102576.84
2018-07-08T11:17:43.712Z,102569.13
2018-07-08T11:20:16.604Z,102574.16
2018-07-08T11:22:50.178Z,102573.95
2018-07-08T11:25:23.288Z,102578.78
2018-07-08T11:27:55.336Z,102572.46
2018-07-08T11:30:28.147Z,102566.84
2018-07-08T11:33:01.459Z,102571.84
2018-07-08T11:35:34.400Z,102564.47
2018-07-08T11:38:06.102Z,102577.25
2018-07-08T11:40:39.169Z,102566.67
2018-07-08T11:43:09.864Z,102560.91
2018-07-08T11:45:44.670Z,102567.38
2018-07-08T11:48:19.019Z,102569.88
2018-07-08T11:50:51.535Z,102566.24
2018-07-08T11:53:21.468Z,102561.77
2018-07-08T11:55:55.789Z,102555.69
2018-07-08T11:58:27.725Z,102564.34
2018-07-08T12:00:59.113Z,102566.23
2018-07-08T12:03:30.975Z,102568.77
2018-07-08T12:06:02.450Z,102557.70
2018-07-08T12:08:32.512Z,102559.48
2018-07-08T12:11:05.453Z,102564.83
2018-07-08T12:13:37.099Z,102554.63
2018-07-08T12:16:10.017Z,102549.67
2018-07-08T12:18:41.463Z,102556.02
2018-07-08T12:21:14.877Z,102545.77
2018-07-08T12:23:46.278Z,102551.08
2018-07-08T12:26:17.701Z,102554.05
2018-07-08T12:28:51.530Z,102554.00
2018-07-08T12:31:24.688Z,102542.06
2018-07-08T12:33:58.997Z,102545.37
2018-07-08T12:36:31.823Z,102541.02
2018-07-08T12:39:06.773Z,102552.51
2018-07-08T12:41:41.308Z,102539.61
2018-07-08T12:44:15.106Z,102547.12
2018-07-08T12:46:49.366Z,102545.92
2018-07-08T12:49:22.254Z,102538.52
2018-07-08T12:51:53.634Z,102534.56
2018-07-08T12:54:26.701Z,102526.80
2018-07-08T12:56:58.617Z,102521.57
2018-07-08T12:59:30.128Z,102522.20
2018-07-08T13:02:03.098Z,102523.97
2018-07-08T13:04:36.028Z,102521.81
2018-07-08T13:07:08.988Z,102523.50
2018-07-08T13:09:40.859Z,102526.77
2018-07-08T13:12:15.673Z,102523.72
2018-07-08T13:14:47.573Z,102514.74
2018-07-08T13:17:18.567Z,102519.50
2018-07-08T13:19:51.489Z,102528.02
2018-07-08T13:22:24.311Z,102525.05
2018-07-08T13:24:56.639Z,102527.18
2018-07-08T13:27:29.597Z,102533.08
2018-07-08T13:30:01.031Z,102529.31
2018-07-08T13:32:32.848Z,102534.91
2018-07-08T13:35:03.342Z,102538.03
2018-07-08T13:37:33.817Z,102523.41
2018-07-08T13:40:05.777Z,102519.11
2018-07-08T13:42:35.722Z,102521.80
2018-07-08T13:45:07.185Z,102527.95
2018-07-08T13:47:38.547Z,102522.38
2018-07-08T13:50:11.815Z,102527.04
2018-07-08T13:52:45.247Z,102529.01
2018-07-08T13:55:15.349Z,102519.28
2018-07-08T13:57:46.983Z,102522.83
2018-07-08T14:00:18.512Z,102523.58
2018-07-08T14:02:48.653Z,102522.67
2018-07-08T14:05:19.344Z,102520.72
2018-07-08T14:07:52.683Z,102521.49
2018-07-08T14:10:22.612Z,102523.44
2018-07-08T14:12:54.072Z,102517.08
2018-07-08T14:15:25.549Z,102522.67
2018-07-08T14:17:58.279Z,102519.23
2018-07-08T14:20:32.765Z,102519.78
2018-07-08T14:23:06.404Z,102524.19
2018-07-08T14:25:41.168Z,102518.86
2018-07-08T14:28:12.784Z,102518.16
2018-07-08T14:30:47.232Z,102518.84
2018-07-08T14:33:21.507Z,102515.75
2018-07-08T14:35:55.934Z,102517.00
2018-07-08T14:38:27.364Z,102522.81
2018-07-08T14:40:57.849Z,102518.55
2018-07-08T14:43:31.020Z,102514.66
2018-07-08T14:46:03.925Z,102522.50
2018-07-08T14:48:35.414Z,102524.84
2018-07-08T14:51:07.251Z,102527.02
2018-07-08T14:53:39.430Z,102517.11
2018-07-08T14:56:10.750Z,102523.17
2018-07-08T14:58:45.111Z,102518.80
2018-07-08T15:01:17.971Z,102523.17
2018-07-08T15:03:50.879Z,102516.91
2018-07-08T15:06:23.707Z,102521.09
2018-07-08T15:08:56.969Z,102516.97
2018-07-08T15:11:29.443Z,102515.63
2018-07-08T15:14:02.320Z,102518.52
2018-07-08T15:16:36.705Z,102517.90
2018-07-08T15:19:09.592Z,102513.41
2018-07-08T15:21:44.102Z,102524.09
2018-07-08T15:24:19.505Z,102512.83
2018-07-08T15:26:53.949Z,102517.83
2018-07-08T15:29:28.207Z,102516.55
2018-07-08T15:32:01.079Z,102520.97
2018-07-08T15:34:32.876Z,102514.08
2018-07-08T15:37:05.686Z,102507.52
2018-07-08T15:39:37.581Z,102508.14
2018-07-08T15:42:09.586Z,102505.67
2018-07-08T15:44:42.897Z,102505.95
2018-07-08T15:47:15.852Z,102501.57
2018-07-08T15:49:47.265Z,102513.43
2018-07-08T15:52:18.729Z,102509.41
2018-07-08T15:54:51.596Z,102512.27
2018-07-08T15:57:25.939Z,102517.79
2018-07-08T15:59:55.974Z,102520.38
2018-07-08T16:02:28.941Z,102513.54
2018-07-08T16:05:00.934Z,102506.17
2018-07-08T16:07:34.892Z,102515.40
2018-07-08T16:10:05.942Z,102514.07
2018-07-08T16:12:37.477Z,102506.56
2018-07-08T16:15:10.723Z,102505.13
2018-07-08T16:17:43.572Z,102509.93
2018-07-08T16:20:15.121Z,102506.05
2018-07-08T16:22:49.031Z,102508.18
2018-07-08T16:25:22.017Z,102510.30
2018-07-08T16:27:54.421Z,102512.89
2018-07-08T16:30:25.797Z,102513.00
2018-07-08T16:32:58.818Z,102513.34
2018-07-08T16:35:30.277Z,102512.39
2018-07-08T16:38:03.211Z,102513.45
2018-07-08T16:40:33.657Z,102516.39
2018-07-08T16:43:06.263Z,102510.31
2018-07-08T16:45:40.645Z,102512.87
2018-07-08T16:48:15.151Z,102498.84
2018-07-08T16:50:50.289Z,102516.73
2018-07-08T16:53:20.228Z,102516.36
2018-07-08T16:55:51.703Z,102512.84
2018-07-08T16:58:24.680Z,102523.92
2018-07-08T17:00:57.443Z,102520.94
2018-07-08T17:03:29.559Z,102518.45
2018-07-08T17:05:59.640Z,102518.46
2018-07-08T17:08:31.680Z,102522.86
2018-07-08T17:11:05.073Z,102510.68
2018-07-08T17:13:37.891Z,102519.44
2018-07-08T17:16:12.318Z,102506.46
2018-07-08T17:18:44.224Z,102512.24
2018-07-08T17:21:15.834Z,102512.80
2018-07-08T17:23:48.866Z,102505.64
2018-07-08T17:26:20.482Z,102506.41
2018-07-08T17:28:53.097Z,102507.68
2018-07-08T17:31:24.749Z,102515.73
2018-07-08T17:33:56.103Z,102518.16
2018-07-08T17:36:29.090Z,102518.48
2018-07-08T17:39:02.024Z,102508.06
2018-07-08T17:41:32.195Z,102507.08
2018-07-08T17:44:03.612Z,102509.81
2018-07-08T17:46:38.535Z,102508.03
2018-07-08T17:49:09.859Z,102500.48
2018-07-08T17:51:42.840Z,102499.88
2018-07-08T17:54:14.804Z,102512.75
2018-07-08T17:56:48.692Z,102506.55
2018-07-08T17:59:21.991Z,102508.50
2018-07-08T18:01:54.899Z,102508.75
2018-07-08T18:04:26.372Z,102507.53
2018-07-08T18:07:00.830Z,102505.70
2018-07-08T18:09:33.097Z,102507.27
2018-07-08T18:12:04.918Z,102499.69
2018-07-08T18:14:36.475Z,102512.31
2018-07-08T18:17:06.497Z,102511.06
2018-07-08T18:19:36.588Z,102508.47
2018-07-08T18:22:09.705Z,102512.48
2018-07-08T18:24:42.776Z,102509.25
2018-07-08T18:27:15.881Z,102505.41
2018-07-08T18:29:49.413Z,102502.64
2018-07-08T18:32:20.861Z,102506.58
2018-07-08T18:34:55.329Z,102509.64
2018-07-08T18:37:29.019Z,102516.88
2018-07-08T18:39:59.590Z,102515.66
2018-07-08T18:42:32.692Z,102513.34
2018-07-08T18:45:02.798Z,102514.91
2018-07-08T18:47:32.992Z,102517.69
2018-07-08T18:50:05.192Z,102515.27
2018-07-08T18:52:39.768Z,102513.34
2018-07-08T18:55:13.292Z,102518.05
2018-07-08T18:57:45.345Z,102520.30
2018-07-08T19:00:19.037Z,102511.58
2018-07-08T19:02:53.531Z,102513.66
2018-07-08T19:05:28.414Z,102515.27
2018-07-08T19:07:58.430Z,102514.50
2018-07-08T19:10:32.432Z,102512.64
2018-07-08T19:13:06.622Z,102509.20
2018-07-08T19:15:41.062Z,102510.71
2018-07-08T19:18:14.845Z,102510.55
2018-07-08T19:20:49.351Z,102512.43
2018-07-08T19:23:23.112Z,102511.02
2018-07-08T19:25:57.010Z,102509.42
2018-07-08T19:28:30.616Z,102510.10
2018-07-08T19:31:02.341Z,102515.12
2018-07-08T19:33:36.228Z,102515.68
2018-07-08T19:36:10.659Z,102517.42
2018-07-08T19:38:43.499Z,102512.45
2018-07-08T19:41:14.981Z,102512.32
2018-07-08T19:43:46.452Z,102508.70
2018-07-08T19:46:16.764Z,102514.04
2018-07-08T19:48:51.123Z,102512.78
2018-07-08T19:51:24.180Z,102510.98
2018-07-08T19:53:57.721Z,102518.97
2018-07-08T19:56:31.603Z,102518.95
2018-07-08T19:59:04.970Z,102527.75
2018-07-08T20:01:39.567Z,102528.64
2018-07-08T20:04:11.040Z,102524.82
2018-07-08T20:06:46.107Z,102530.22
2018-07-08T20:09:20.505Z,102524.69
2018-07-08T20:11:52.532Z,102535.22
2018-07-08T20:14:24.249Z,102530.42
2018-07-08T20:16:57.258Z,102539.56
2018-07-08T20:19:29.086Z,102538.06
2018-07-08T20:22:00.424Z,102537.02
2018-07-08T20:24:33.419Z,102538.37
2018-07-08T20:27:06.466Z,102537.61
2018-07-08T20:29:37.891Z,102547.11
2018-07-08T20:32:08.341Z,102551.16
2018-07-08T20:34:42.841Z,102548.63
2018-07-08T20:37:14.504Z,102551.36
2018-07-08T20:39:47.702Z,102546.72
2018-07-08T20:42:22.766Z,102546.52
2018-07-08T20:44:55.832Z,102544.53
2018-07-08T20:47:28.851Z,102548.87
2018-07-08T20:50:03.238Z,102546.66
2018-07-08T20:52:35.045Z,102553.73
2018-07-08T20:55:09.446Z,102553.23
2018-07-08T20:57:44.366Z,102558.51
2018-07-08T21:00:18.888Z,102559.09
2018-07-08T21:02:51.947Z,102556.66
2018-07-08T21:05:25.490Z,102552.30
2018-07-08T21:07:58.964Z,102558.31
2018-07-08T21:10:34.135Z,102553.08
2018-07-08T21:13:07.205Z,102558.73
2018-07-08T21:15:38.830Z,102553.91
2018-07-08T21:18:10.487Z,102562.02
2018-07-08T21:20:41.432Z,102559.34
2018-07-08T21:23:15.892Z,102560.33
2018-07-08T21:25:50.334Z,102557.88
2018-07-08T21:28:21.719Z,102559.08
2018-07-08T21:30:53.552Z,102563.33
2018-07-08T21:33:28.358Z,102554.27
2018-07-08T21:36:01.337Z,102553.66
2018-07-08T21:38:32.791Z,102561.50
2018-07-08T21:41:05.839Z,102558.03
2018-07-08T21:43:36.969Z,102550.44
2018-07-08T21:46:07.065Z,102559.54
2018-07-08T21:48:41.134Z,102558.13
2018-07-08T21:51:12.616Z,102565.98
2018-07-08T21:53:45.759Z,102557.14
2018-07-08T21:56:18.433Z,102552.97
2018-07-08T21:58:51.421Z,102553.28
2018-07-08T22:01:26.359Z,102554.39
2018-07-08T22:03:59.998Z,102554.59
2018-07-08T22:06:31.576Z,102561.29
2018-07-08T22:09:02.675Z,102552.49
2018-07-08T22:11:35.603Z,102555.42
2018-07-08T22:14:09.263Z,102560.03
2018-07-08T22:16:40.801Z,102554.36
2018-07-08T22:19:12.416Z,102554.60
2018-07-08T22:21:45.611Z,102553.58
2018-07-08T22:24:17.242Z,102555.10
2018-07-08T22:26:51.285Z,102555.22
2018-07-08T22:29:24.299Z,102551.11
2018-07-08T22:31:58.753Z,102546.72
2018-07-08T22:34:30.303Z,102540.84
2018-07-08T22:37:01.763Z,102545.91
2018-07-08T22:39:36.387Z,102544.75
2018-07-08T22:42:11.032Z,102546.75
2018-07-08T22:44:43.972Z,102544.91
2018-07-08T22:47:16.954Z,102545.39
2018-07-08T22:49:49.009Z,102537.58
2018-07-08T22:52:23.395Z,102537.94
2018-07-08T22:54:58.094Z,102534.22
2018-07-08T22:57:31.714Z,102542.81
2018-07-08T23:00:38.882Z,102545.17
2018-07-08T23:03:44.223Z,102546.88
2018-07-08T23:06:17.637Z,102544.81
2018-07-08T23:08:48.475Z,102542.08
2018-07-08T23:11:22.589Z,102549.08
2018-07-08T23:13:58.224Z,102547.05
2018-07-08T23:16:32.370Z,102544.18
2018-07-08T23:19:03.875Z,102547.52
2018-07-08T23:21:38.727Z,102544.05
2018-07-08T23:24:11.868Z,102543.78
2018-07-08T23:26:43.643Z,102543.29
2018-07-08T23:29:15.322Z,102544.73
2018-07-08T23:31:48.957Z,102542.97
2018-07-08T23:34:20.650Z,102541.22
2018-07-08T23:36:52.033Z,102539.27
2018-07-08T23:39:25.906Z,102537.95
2018-07-08T23:41:57.097Z,102540.81
2018-07-08T23:44:31.069Z,102548.48
2018-07-08T23:47:04.165Z,102542.37
2018-07-08T23:49:38.339Z,102551.00
2018-07-08T23:52:13.170Z,102538.25
2018-07-08T23:54:45.113Z,102540.33
2018-07-08T23:57:18.268Z,102542.67
2018-07-08T23:59:52.360Z,102535.82
